createdAt,value
2022-09-17T00:00:48.886Z,90.70
2022-09-17T00:03:16.100Z,89.90
2022-09-17T00:05:43.815Z,89.20
2022-09-17T00:08:14.842Z,90.00
2022-09-17T00:10:43.315Z,90.00
2022-09-17T00:13:10.858Z,90.70
2022-09-17T00:15:42.947Z,90.60
2022-09-17T00:18:09.951Z,90.90
2022-09-17T00:20:42.141Z,90.90
2022-09-17T00:23:10.010Z,90.40
2022-09-17T00:25:41.422Z,90.20
2022-09-17T00:28:08.145Z,90.20
2022-09-17T00:30:34.895Z,90.30
2022-09-17T00:33:01.646Z,89.80
2022-09-17T00:35:28.512Z,90.00
2022-09-17T00:37:55.134Z,89.90
2022-09-17T00:40:21.925Z,90.70
2022-09-17T00:42:48.613Z,91.10
2022-09-17T00:45:15.302Z,90.90
2022-09-17T00:47:46.606Z,91.20
2022-09-17T00:50:21.316Z,90.90
2022-09-17T00:52:55.325Z,91.30
2022-09-17T00:55:26.513Z,91.80
2022-09-17T00:57:56.427Z,91.90
2022-09-17T01:00:23.136Z,91.70
2022-09-17T01:02:49.999Z,91.80
2022-09-17T01:05:16.974Z,92.00
2022-09-17T01:08:01.974Z,92.50
2022-09-17T01:10:57.920Z,93.00
2022-09-17T01:13:44.731Z,93.70
2022-09-17T01:16:14.260Z,93.70
2022-09-17T01:18:59.319Z,94.00
2022-09-17T01:21:34.244Z,94.30
2022-09-17T01:24:42.112Z,94.30
2022-09-17T01:27:33.297Z,94.40
2022-09-17T01:30:17.956Z,95.30
2022-09-17T01:33:15.648Z,95.00
2022-09-17T01:36:00.738Z,95.10
2022-09-17T01:38:36.052Z,95.10
2022-09-17T01:41:20.111Z,95.50
2022-09-17T01:43:58.149Z,95.30
2022-09-17T01:46:32.423Z,95.50
2022-09-17T01:49:03.667Z,95.80
2022-09-17T01:51:38.171Z,95.40
2022-09-17T01:54:14.447Z,95.60
2022-09-17T01:56:48.587Z,95.50
2022-09-17T01:59:34.133Z,95.10
2022-09-17T02:02:26.464Z,95.00
2022-09-17T02:05:02.271Z,94.70
2022-09-17T02:07:31.794Z,95.70
2022-09-17T02:10:07.408Z,94.80
2022-09-17T02:12:44.922Z,94.90
2022-09-17T02:15:17.846Z,94.80
2022-09-17T02:17:55.896Z,95.10
2022-09-17T02:20:28.250Z,95.00
2022-09-17T02:23:02.655Z,95.30
2022-09-17T02:25:37.525Z,95.60
2022-09-17T02:28:13.277Z,95.80
2022-09-17T02:30:39.946Z,95.70
2022-09-17T02:33:09.836Z,95.60
2022-09-17T02:35:37.889Z,96.00
2022-09-17T02:38:04.548Z,95.90
2022-09-17T02:40:36.205Z,95.90
2022-09-17T02:43:18.433Z,95.70
2022-09-17T02:46:14.354Z,95.80
2022-09-17T02:49:10.029Z,95.80
2022-09-17T02:51:52.897Z,96.00
2022-09-17T02:54:25.688Z,95.50
2022-09-17T02:57:14.142Z,95.20
2022-09-17T03:00:05.366Z,95.70
2022-09-17T03:02:38.598Z,95.70
2022-09-17T03:05:08.047Z,95.40
2022-09-17T03:07:34.870Z,95.00
2022-09-17T03:10:01.447Z,95.20
2022-09-17T03:12:28.218Z,95.00
2022-09-17T03:14:54.846Z,95.10
2022-09-17T03:17:21.499Z,94.80
2022-09-17T03:19:48.168Z,94.80
2022-09-17T03:22:14.846Z,95.00
2022-09-17T03:24:41.551Z,94.90
2022-09-17T03:27:08.178Z,94.40
2022-09-17T03:29:34.783Z,94.40
2022-09-17T03:32:02.033Z,95.10
2022-09-17T03:34:28.626Z,95.20
2022-09-17T03:36:55.296Z,95.30
2022-09-17T03:39:21.966Z,95.10
2022-09-17T03:41:48.552Z,95.10
2022-09-17T03:44:15.512Z,95.10
2022-09-17T03:46:42.986Z,95.00
2022-09-17T03:49:09.753Z,95.00
2022-09-17T03:51:36.498Z,95.00
2022-09-17T03:54:03.362Z,95.20
2022-09-17T03:56:30.027Z,94.40
2022-09-17T03:59:00.678Z,94.30
2022-09-17T04:01:28.522Z,93.90
2022-09-17T04:03:55.895Z,93.90
2022-09-17T04:06:22.591Z,93.90
2022-09-17T04:08:49.270Z,94.00
2022-09-17T04:11:15.971Z,94.20
2022-09-17T04:13:42.586Z,93.80
2022-09-17T04:16:09.393Z,93.80
2022-09-17T04:18:35.993Z,93.50
2022-09-17T04:21:02.782Z,93.10
2022-09-17T04:23:29.440Z,92.40
2022-09-17T04:25:56.018Z,92.20
2022-09-17T04:28:22.612Z,92.40
2022-09-17T04:30:49.399Z,92.20
2022-09-17T04:33:16.171Z,91.90
2022-09-17T04:35:43.475Z,92.10
2022-09-17T04:38:10.325Z,91.90
2022-09-17T04:40:36.976Z,91.50
2022-09-17T04:43:04.094Z,90.10
2022-09-17T04:45:33.336Z,89.50
2022-09-17T04:48:00.362Z,89.80
2022-09-17T04:50:27.038Z,89.00
2022-09-17T04:52:53.635Z,89.60
2022-09-17T04:55:20.407Z,89.80
2022-09-17T04:57:52.038Z,90.30
2022-09-17T05:00:20.420Z,89.60
2022-09-17T05:02:49.484Z,89.70
2022-09-17T05:05:17.067Z,89.80
2022-09-17T05:07:43.939Z,89.90
2022-09-17T05:10:12.895Z,89.50
2022-09-17T05:12:39.567Z,88.80
2022-09-17T05:15:06.607Z,88.70
2022-09-17T05:17:33.415Z,89.10
2022-09-17T05:20:00.024Z,88.60
2022-09-17T05:22:26.677Z,88.70
2022-09-17T05:24:53.318Z,89.00
2022-09-17T05:27:19.927Z,88.80
2022-09-17T05:29:46.687Z,88.90
2022-09-17T05:32:13.419Z,88.70
2022-09-17T05:34:40.506Z,88.70
2022-09-17T05:37:10.284Z,89.50
2022-09-17T05:39:37.070Z,88.90
2022-09-17T05:42:03.797Z,89.10
2022-09-17T05:44:30.385Z,88.60
2022-09-17T05:46:57.054Z,88.90
2022-09-17T05:49:23.769Z,88.70
2022-09-17T05:51:51.811Z,88.60
2022-09-17T05:54:18.497Z,87.40
2022-09-17T05:56:45.161Z,87.20
2022-09-17T05:59:12.528Z,87.10
2022-09-17T06:01:39.242Z,85.70
2022-09-17T06:04:05.910Z,85.90
2022-09-17T06:06:32.743Z,85.50
2022-09-17T06:09:00.500Z,86.30
2022-09-17T06:11:27.142Z,85.80
2022-09-17T06:13:54.766Z,85.80
2022-09-17T06:16:23.081Z,85.00
2022-09-17T06:18:55.555Z,84.70
2022-09-17T06:21:22.920Z,85.40
2022-09-17T06:23:50.556Z,84.70
2022-09-17T06:26:17.820Z,85.20
2022-09-17T06:28:45.025Z,86.00
2022-09-17T06:31:13.099Z,85.50
2022-09-17T06:33:39.948Z,85.90
2022-09-17T06:36:13.338Z,85.50
2022-09-17T06:38:41.298Z,84.80
2022-09-17T06:41:08.124Z,85.20
2022-09-17T06:43:34.764Z,84.60
2022-09-17T06:46:03.432Z,83.80
2022-09-17T06:48:30.874Z,83.30
2022-09-17T06:51:03.866Z,82.90
2022-09-17T06:53:31.260Z,82.40
2022-09-17T06:56:03.649Z,83.30
2022-09-17T06:58:32.841Z,83.40
2022-09-17T07:01:03.897Z,81.40
2022-09-17T07:03:31.403Z,81.20
2022-09-17T07:05:58.336Z,82.20
2022-09-17T07:08:26.121Z,80.70
2022-09-17T07:10:56.591Z,81.80
2022-09-17T07:13:23.605Z,78.60
2022-09-17T07:15:58.770Z,77.30
2022-09-17T07:18:26.351Z,76.90
2022-09-17T07:20:56.689Z,73.90
2022-09-17T07:23:24.631Z,74.80
2022-09-17T07:25:52.558Z,76.20
2022-09-17T07:28:19.560Z,77.10
2022-09-17T07:30:46.314Z,73.90
2022-09-17T07:33:12.915Z,73.80
2022-09-17T07:35:39.654Z,71.80
2022-09-17T07:38:06.299Z,71.20
2022-09-17T07:40:32.983Z,73.90
2022-09-17T07:42:59.615Z,74.50
2022-09-17T07:45:26.314Z,74.40
2022-09-17T07:47:52.943Z,76.30
2022-09-17T07:50:19.596Z,72.50
2022-09-17T07:52:49.231Z,73.20
2022-09-17T07:55:16.585Z,70.90
2022-09-17T07:57:43.180Z,70.50
2022-09-17T08:00:10.416Z,68.30
2022-09-17T08:02:37.104Z,67.00
2022-09-17T08:05:04.107Z,62.60
2022-09-17T08:07:30.735Z,62.60
2022-09-17T08:09:57.382Z,60.80
2022-09-17T08:12:23.979Z,59.80
2022-09-17T08:14:50.661Z,61.00
2022-09-17T08:17:17.352Z,61.60
2022-09-17T08:19:43.989Z,63.80
2022-09-17T08:22:10.676Z,62.70
2022-09-17T08:24:37.283Z,63.30
2022-09-17T08:27:04.018Z,63.30
2022-09-17T08:29:34.980Z,57.70
2022-09-17T08:32:02.334Z,60.90
2022-09-17T08:34:29.012Z,62.40
2022-09-17T08:36:56.053Z,59.80
2022-09-17T08:39:22.651Z,60.90
2022-09-17T08:42:11.602Z,61.10
2022-09-17T08:44:46.050Z,58.60
2022-09-17T08:47:14.903Z,54.60
2022-09-17T08:49:58.118Z,50.40
2022-09-17T08:52:49.900Z,51.30
2022-09-17T08:55:23.411Z,47.90
2022-09-17T08:58:02.870Z,48.90
2022-09-17T09:00:39.527Z,47.90
2022-09-17T09:04:02.117Z,48.20
2022-09-17T09:06:34.350Z,49.60
2022-09-17T09:09:05.431Z,51.80
2022-09-17T09:11:32.396Z,53.30
2022-09-17T09:14:16.332Z,53.60
2022-09-17T09:16:45.871Z,55.10
2022-09-17T09:19:18.343Z,53.80
2022-09-17T09:22:04.948Z,54.70
2022-09-17T09:24:57.460Z,57.40
2022-09-17T09:27:32.712Z,57.20
2022-09-17T09:30:07.448Z,59.70
2022-09-17T09:32:43.651Z,52.80
2022-09-17T09:35:32.794Z,50.30
2022-09-17T09:38:08.823Z,49.70
2022-09-17T09:41:03.101Z,50.40
2022-09-17T09:44:04.661Z,48.30
2022-09-17T09:46:47.772Z,48.40
2022-09-17T09:49:30.551Z,48.20
2022-09-17T09:52:19.033Z,48.90
2022-09-17T09:55:03.675Z,45.70
2022-09-17T09:57:42.243Z,46.00
2022-09-17T10:00:42.665Z,44.40
2022-09-17T10:03:23.167Z,44.00
2022-09-17T10:06:01.090Z,46.20
2022-09-17T10:08:30.791Z,48.70
2022-09-17T10:10:59.162Z,43.90
2022-09-17T10:13:27.062Z,39.90
2022-09-17T10:15:54.192Z,38.30
2022-09-17T10:18:23.107Z,35.80
2022-09-17T10:21:01.054Z,37.30
2022-09-17T10:23:36.564Z,34.00
2022-09-17T10:26:03.767Z,34.50
2022-09-17T10:28:43.748Z,34.00
2022-09-17T10:31:10.908Z,34.60
2022-09-17T10:34:00.537Z,32.40
2022-09-17T10:36:46.899Z,30.70
2022-09-17T10:39:34.448Z,33.30
2022-09-17T10:42:05.141Z,32.50
2022-09-17T10:44:34.640Z,31.60
2022-09-17T10:47:06.014Z,31.80
2022-09-17T10:49:37.951Z,34.00
2022-09-17T10:52:06.128Z,32.60
2022-09-17T10:54:51.468Z,31.10
2022-09-17T10:57:49.243Z,34.40
2022-09-17T11:00:22.680Z,37.90
2022-09-17T11:03:09.636Z,42.70
2022-09-17T11:05:41.987Z,40.50
2022-09-17T11:08:23.695Z,39.00
2022-09-17T11:11:10.789Z,35.90
2022-09-17T11:13:47.227Z,35.90
2022-09-17T11:16:49.762Z,40.10
2022-09-17T11:19:34.363Z,41.30
2022-09-17T11:22:11.872Z,49.10
2022-09-17T11:24:51.122Z,46.50
2022-09-17T11:27:30.214Z,41.00
2022-09-17T11:30:17.055Z,42.70
2022-09-17T11:32:52.099Z,41.70
2022-09-17T11:36:02.872Z,43.30
2022-09-17T11:38:39.764Z,41.90
2022-09-17T11:41:46.712Z,46.60
2022-09-17T11:44:40.868Z,53.80
2022-09-17T11:47:13.200Z,54.90
2022-09-17T11:49:46.482Z,58.70
2022-09-17T11:52:26.498Z,61.80
2022-09-17T11:55:16.088Z,59.80
2022-09-17T11:57:44.476Z,54.20
2022-09-17T12:00:20.075Z,59.40
2022-09-17T12:03:02.050Z,56.50
2022-09-17T12:05:38.068Z,51.70
2022-09-17T12:08:26.593Z,50.60
2022-09-17T12:11:06.565Z,54.30
2022-09-17T12:13:55.249Z,62.10
2022-09-17T12:16:40.409Z,61.50
2022-09-17T12:19:37.383Z,66.80
2022-09-17T12:22:09.471Z,77.40
2022-09-17T12:24:36.466Z,78.50
2022-09-17T12:27:16.918Z,75.60
2022-09-17T12:30:10.685Z,73.30
2022-09-17T12:33:00.793Z,67.30
2022-09-17T12:35:46.425Z,65.80
2022-09-17T12:38:41.776Z,61.70
2022-09-17T12:41:26.909Z,62.00
2022-09-17T12:44:14.871Z,59.40
2022-09-17T12:46:47.574Z,60.30
2022-09-17T12:49:37.749Z,61.50
2022-09-17T12:52:43.620Z,63.30
2022-09-17T12:55:19.290Z,66.50
2022-09-17T12:58:08.228Z,67.10
2022-09-17T13:00:42.215Z,66.80
2022-09-17T13:03:24.376Z,71.20
2022-09-17T13:06:18.569Z,66.20
2022-09-17T13:09:06.268Z,55.30
2022-09-17T13:11:52.805Z,56.40
2022-09-17T13:14:33.654Z,51.90
2022-09-17T13:17:44.838Z,54.70
2022-09-17T13:20:21.553Z,52.70
2022-09-17T13:22:51.692Z,51.90
2022-09-17T13:25:20.363Z,48.00
2022-09-17T13:27:48.980Z,46.40
2022-09-17T13:30:20.705Z,47.00
2022-09-17T13:32:49.501Z,49.30
2022-09-17T13:35:16.064Z,51.40
2022-09-17T13:37:44.629Z,50.30
2022-09-17T13:40:24.618Z,48.90
2022-09-17T13:42:57.483Z,46.60
2022-09-17T13:45:25.746Z,49.40
2022-09-17T13:48:02.245Z,45.70
2022-09-17T13:50:36.448Z,46.60
2022-09-17T13:53:13.478Z,45.20
2022-09-17T13:55:51.274Z,42.20
2022-09-17T13:58:26.757Z,41.40
2022-09-17T14:01:02.760Z,43.50
2022-09-17T14:03:36.988Z,45.20
2022-09-17T14:06:09.441Z,47.80
2022-09-17T14:08:45.318Z,47.10
2022-09-17T14:11:39.316Z,46.80
2022-09-17T14:14:06.337Z,47.70
2022-09-17T14:16:36.874Z,48.30
2022-09-17T14:19:15.748Z,46.20
2022-09-17T14:21:57.302Z,45.80
2022-09-17T14:24:26.738Z,48.80
2022-09-17T14:27:05.515Z,51.80
2022-09-17T14:29:51.623Z,56.70
2022-09-17T14:32:27.710Z,61.20
2022-09-17T14:34:54.566Z,66.20
2022-09-17T14:37:23.713Z,70.20
2022-09-17T14:39:52.099Z,70.90
2022-09-17T14:42:22.667Z,69.90
2022-09-17T14:45:00.602Z,71.20
2022-09-17T14:47:27.269Z,66.40
2022-09-17T14:49:54.539Z,68.10
2022-09-17T14:52:30.425Z,64.30
2022-09-17T14:55:32.202Z,63.10
2022-09-17T14:58:02.507Z,62.70
2022-09-17T15:00:40.286Z,66.30
2022-09-17T15:03:20.525Z,64.80
2022-09-17T15:05:50.433Z,68.20
2022-09-17T15:08:21.220Z,67.10
2022-09-17T15:11:02.519Z,68.20
2022-09-17T15:13:38.412Z,68.20
2022-09-17T15:16:22.164Z,70.70
2022-09-17T15:19:00.937Z,69.10
2022-09-17T15:21:41.247Z,67.60
2022-09-17T15:24:19.224Z,68.70
2022-09-17T15:26:51.896Z,68.20
2022-09-17T15:29:23.046Z,70.10
2022-09-17T15:31:49.796Z,70.90
2022-09-17T15:34:16.615Z,71.60
2022-09-17T15:37:04.851Z,72.60
2022-09-17T15:39:42.159Z,72.30
2022-09-17T15:42:23.360Z,70.60
2022-09-17T15:44:50.581Z,72.00
2022-09-17T15:47:49.507Z,71.60
2022-09-17T15:50:23.271Z,71.90
2022-09-17T15:52:51.359Z,72.20
2022-09-17T15:55:36.630Z,72.00
2022-09-17T15:58:05.992Z,72.90
2022-09-17T16:00:32.769Z,71.30
2022-09-17T16:03:38.658Z,71.70
2022-09-17T16:06:20.744Z,71.30
2022-09-17T16:08:54.623Z,70.30
2022-09-17T16:11:26.237Z,71.80
2022-09-17T16:13:55.020Z,70.60
2022-09-17T16:16:34.631Z,71.10
2022-09-17T16:19:02.042Z,70.10
2022-09-17T16:21:29.038Z,69.80
2022-09-17T16:23:58.001Z,69.50
2022-09-17T16:26:34.805Z,69.20
2022-09-17T16:29:17.466Z,68.80
2022-09-17T16:31:44.815Z,68.40
2022-09-17T16:34:11.552Z,68.80
2022-09-17T16:36:38.303Z,68.20
2022-09-17T16:39:05.234Z,66.70
2022-09-17T16:41:31.858Z,66.40
2022-09-17T16:43:58.650Z,67.60
2022-09-17T16:46:25.540Z,67.50
2022-09-17T16:48:52.270Z,67.20
2022-09-17T16:51:19.035Z,68.10
2022-09-17T16:53:46.132Z,68.50
2022-09-17T16:56:15.207Z,67.90
2022-09-17T16:58:42.071Z,68.50
2022-09-17T17:01:14.428Z,69.80
2022-09-17T17:03:41.715Z,70.50
2022-09-17T17:06:21.863Z,72.00
2022-09-17T17:08:49.115Z,72.30
2022-09-17T17:11:15.954Z,72.60
2022-09-17T17:13:43.338Z,72.90
2022-09-17T17:16:11.886Z,74.00
2022-09-17T17:18:38.928Z,73.80
2022-09-17T17:21:07.968Z,74.30
2022-09-17T17:23:35.551Z,75.40
2022-09-17T17:26:03.657Z,75.50
2022-09-17T17:28:35.247Z,74.10
2022-09-17T17:31:03.285Z,72.30
2022-09-17T17:33:30.206Z,71.30
2022-09-17T17:36:06.631Z,68.60
2022-09-17T17:38:34.505Z,67.20
2022-09-17T17:41:28.263Z,69.90
2022-09-17T17:43:55.614Z,70.10
2022-09-17T17:46:23.757Z,73.60
2022-09-17T17:48:51.160Z,72.10
2022-09-17T17:51:18.838Z,73.10
2022-09-17T17:53:46.650Z,73.20
2022-09-17T17:56:13.587Z,73.80
2022-09-17T17:58:40.847Z,74.40
2022-09-17T18:01:16.633Z,74.60
2022-09-17T18:03:43.564Z,74.60
2022-09-17T18:06:10.563Z,74.50
2022-09-17T18:08:39.259Z,76.00
2022-09-17T18:11:08.289Z,75.60
2022-09-17T18:13:36.341Z,77.90
2022-09-17T18:16:04.586Z,79.20
2022-09-17T18:18:40.971Z,80.40
2022-09-17T18:21:21.829Z,82.20
2022-09-17T18:23:49.546Z,82.60
2022-09-17T18:26:21.988Z,82.80
2022-09-17T18:28:49.054Z,82.70
2022-09-17T18:31:24.713Z,83.00
2022-09-17T18:34:06.979Z,82.70
2022-09-17T18:36:35.527Z,82.90
2022-09-17T18:41:52.544Z,82.90
2022-09-17T18:44:21.502Z,82.50
2022-09-17T18:46:49.832Z,82.50
2022-09-17T18:49:16.567Z,82.50
2022-09-17T18:51:43.271Z,82.20
2022-09-17T18:54:12.533Z,81.80
2022-09-17T18:56:40.204Z,81.70
2022-09-17T18:59:08.313Z,81.00
2022-09-17T19:01:35.819Z,81.20
2022-09-17T19:04:03.383Z,80.40
2022-09-17T19:06:32.200Z,79.90
2022-09-17T19:09:00.784Z,80.30
2022-09-17T19:11:27.788Z,80.20
2022-09-17T19:13:54.514Z,80.40
2022-09-17T19:16:21.318Z,80.90
2022-09-17T19:18:48.047Z,80.20
2022-09-17T19:21:20.584Z,81.00
2022-09-17T19:23:49.571Z,80.30
2022-09-17T19:26:19.123Z,80.10
2022-09-17T19:28:46.193Z,80.30
2022-09-17T19:31:15.514Z,80.60
2022-09-17T19:33:42.929Z,80.80
2022-09-17T19:36:15.611Z,80.70
2022-09-17T19:38:42.708Z,80.90
2022-09-17T19:41:16.463Z,80.70
2022-09-17T19:43:44.999Z,80.10
2022-09-17T19:46:14.299Z,79.70
2022-09-17T19:48:44.596Z,79.40
2022-09-17T19:51:11.579Z,79.20
2022-09-17T19:53:38.233Z,79.00
2022-09-17T19:56:06.514Z,78.50
2022-09-17T19:58:33.120Z,78.10
2022-09-17T20:01:00.088Z,78.40
2022-09-17T20:03:26.934Z,78.10
2022-09-17T20:06:05.543Z,77.20
2022-09-17T20:08:32.571Z,76.30
2022-09-17T20:11:07.451Z,76.10
2022-09-17T20:13:34.770Z,76.00
2022-09-17T20:16:10.682Z,76.10
2022-09-17T20:18:37.456Z,76.20
2022-09-17T20:21:12.352Z,75.70
2022-09-17T20:23:39.311Z,75.50
2022-09-17T20:26:06.425Z,75.90
2022-09-17T20:28:33.672Z,75.30
2022-09-17T20:31:25.028Z,76.00
2022-09-17T20:33:53.145Z,75.70
2022-09-17T20:36:22.447Z,75.90
2022-09-17T20:41:40.387Z,75.60
2022-09-17T20:44:07.745Z,75.50
2022-09-17T20:46:34.745Z,75.70
2022-09-17T20:49:01.510Z,76.10
2022-09-17T20:51:30.277Z,76.30
2022-09-17T20:53:57.693Z,76.80
2022-09-17T20:56:33.101Z,76.40
2022-09-17T20:59:13.320Z,76.40
2022-09-17T21:01:44.451Z,76.10
2022-09-17T21:04:13.639Z,76.20
2022-09-17T21:06:44.165Z,76.20
2022-09-17T21:09:12.274Z,76.10
2022-09-17T21:11:39.022Z,76.60
2022-09-17T21:14:05.806Z,76.60
2022-09-17T21:16:32.661Z,76.70
2022-09-17T21:19:02.861Z,75.70
2022-09-17T21:21:29.832Z,75.70
2022-09-17T21:24:01.135Z,75.80
2022-09-17T21:26:28.451Z,75.20
2022-09-17T21:28:56.777Z,76.30
2022-09-17T21:31:31.023Z,75.00
2022-09-17T21:34:01.149Z,75.70
2022-09-17T21:36:29.863Z,76.50
2022-09-17T21:39:02.488Z,76.70
2022-09-17T21:41:29.643Z,76.60
2022-09-17T21:43:56.329Z,77.00
2022-09-17T21:46:28.910Z,77.70
2022-09-17T21:48:58.292Z,77.80
2022-09-17T21:51:30.302Z,78.20
2022-09-17T21:54:00.154Z,78.70
2022-09-17T21:56:27.664Z,79.00
2022-09-17T21:58:56.423Z,79.40
2022-09-17T22:01:28.302Z,79.50
2022-09-17T22:03:55.653Z,79.60
2022-09-17T22:06:27.837Z,79.80
2022-09-17T22:08:56.079Z,79.90
2022-09-17T22:11:31.194Z,80.50
2022-09-17T22:14:08.985Z,80.90
2022-09-17T22:16:37.918Z,81.20
2022-09-17T22:19:05.586Z,81.70
2022-09-17T22:21:35.055Z,82.00
2022-09-17T22:24:03.199Z,81.90
2022-09-17T22:26:32.362Z,81.50
2022-09-17T22:29:04.330Z,81.30
2022-09-17T22:31:31.449Z,81.50
2022-09-17T22:33:58.487Z,81.50
2022-09-17T22:36:27.413Z,81.30
2022-09-17T22:38:56.464Z,80.60
2022-09-17T22:41:26.137Z,80.80
2022-09-17T22:43:57.771Z,80.90
2022-09-17T22:46:33.329Z,80.90
2022-09-17T22:49:00.222Z,80.80
2022-09-17T22:51:28.267Z,80.70
2022-09-17T22:53:55.350Z,80.60
2022-09-17T22:56:23.328Z,80.60
2022-09-17T22:58:50.530Z,80.70
2022-09-17T23:01:23.816Z,81.30
2022-09-17T23:03:53.290Z,81.30
2022-09-17T23:06:22.171Z,81.40
2022-09-17T23:08:48.771Z,81.50
2022-09-17T23:11:18.981Z,82.40
2022-09-17T23:13:45.735Z,82.40
2022-09-17T23:16:12.496Z,82.60
2022-09-17T23:18:39.195Z,82.50
2022-09-17T23:21:14.787Z,82.20
2022-09-17T23:23:42.883Z,82.00
2022-09-17T23:26:18.916Z,81.90
2022-09-17T23:28:46.207Z,81.00
2022-09-17T23:31:21.431Z,80.80
2022-09-17T23:33:48.849Z,80.40
2022-09-17T23:36:21.650Z,80.50
2022-09-17T23:38:49.536Z,80.60
2022-09-17T23:41:20.193Z,80.50
2022-09-17T23:43:49.564Z,80.70
2022-09-17T23:46:17.267Z,81.30
2022-09-17T23:48:44.661Z,81.60
2022-09-17T23:51:11.355Z,81.10
2022-09-17T23:53:38.320Z,81.40
2022-09-17T23:56:12.753Z,81.40
2022-09-17T23:58:39.902Z,81.30
